Time;durP1;ratioP1;P1;durP2;ratioP2;P2;SDS_P1;SDS_P2;PMS_P1;PMS_P2;Temp;Humidity;BMP_temperature;BMP_pressure;BME280_temperature;BME280_humidity;BME280_pressure;Samples;Min_cycle;Max_cycle;Signal;HPM_P1;HPM_P2
2021/10/16 00:01:50;;;;;;;2.17;1.35;;;;;;;6.00;100.00;92504.38;5009327;28;20065;-83
2021/10/16 00:04:16;;;;;;;2.78;1.48;;;;;;;6.91;100.00;92635.69;5009604;28;20053;-83
2021/10/16 00:06:43;;;;;;;2.75;1.20;;;;;;;6.89;100.00;92619.81;5009413;28;20523;-84
2021/10/16 00:09:10;;;;;;;2.45;1.67;;;;;;;6.79;100.00;92617.66;5009344;28;20049;-84
2021/10/16 00:11:37;;;;;;;2.72;1.73;;;;;;;6.53;100.00;92571.59;5021649;28;20397;-84
2021/10/16 00:14:05;;;;;;;2.85;1.60;;;;;;;6.73;100.00;92591.19;5045662;28;20080;-84
2021/10/16 00:16:31;;;;;;;2.70;1.40;;;;;;;6.57;100.00;92555.88;5043974;28;20053;-84
2021/10/16 00:19:00;;;;;;;3.60;1.70;;;;;;;6.67;100.00;92559.56;5038643;28;20061;-83
2021/10/16 00:21:27;;;;;;;3.47;1.83;;;;;;;6.79;100.00;92562.28;5034116;28;20057;-84
2021/10/16 00:23:53;;;;;;;2.78;1.50;;;;;;;6.75;100.00;92557.81;5032686;28;20057;-84
2021/10/16 00:26:20;;;;;;;3.50;1.40;;;;;;;7.27;100.00;92618.28;5032579;28;20049;-84
2021/10/16 00:28:47;;;;;;;2.78;1.60;;;;;;;6.57;100.00;92508.16;5040629;28;20077;-83
2021/10/16 00:31:14;;;;;;;4.25;2.15;;;;;;;6.91;100.00;92556.56;5052393;28;20057;-83
2021/10/16 00:33:41;;;;;;;3.85;1.73;;;;;;;7.00;100.00;92568.09;5052068;28;20056;-83
2021/10/16 00:36:10;;;;;;;3.78;2.30;;;;;;;7.28;100.00;92607.06;5051951;28;20053;-84
2021/10/16 00:38:37;;;;;;;3.55;2.22;;;;;;;6.97;100.00;92558.28;5051971;28;20427;-84
2021/10/16 00:41:03;;;;;;;1.88;0.90;;;;;;;6.60;100.00;92594.53;5052080;28;20060;-84
2021/10/16 00:43:30;;;;;;;1.63;1.08;;;;;;;6.34;100.00;92575.75;5052172;28;20517;-83
2021/10/16 00:45:57;;;;;;;1.88;0.98;;;;;;;5.47;100.00;92525.56;5051944;28;20057;-83
2021/10/16 00:48:24;;;;;;;2.10;1.25;;;;;;;6.03;100.00;92601.88;5051936;28;20484;-84
2021/10/16 00:50:51;;;;;;;2.10;1.35;;;;;;;5.84;100.00;92578.69;5052038;28;20080;-83
2021/10/16 00:53:19;;;;;;;2.03;1.30;;;;;;;5.68;100.00;92554.38;5051692;28;20590;-84
2021/10/16 00:55:49;;;;;;;2.83;1.58;;;;;;;5.83;100.00;92584.78;5051719;28;20053;-85
2021/10/16 00:58:16;;;;;;;1.88;1.30;;;;;;;5.85;100.00;92596.34;5051849;28;20059;-83
2021/10/16 01:00:43;;;;;;;2.55;1.70;;;;;;;5.21;100.00;92507.53;5051396;28;20057;-84
2021/10/16 01:03:10;;;;;;;1.90;1.20;;;;;;;5.88;100.00;92590.09;5051927;28;20055;-84
2021/10/16 01:05:38;;;;;;;2.65;1.70;;;;;;;5.68;100.00;92592.59;5051854;28;20061;-83
2021/10/16 01:08:05;;;;;;;2.78;1.58;;;;;;;5.25;100.00;92519.84;5051285;28;20115;-83
2021/10/16 01:10:33;;;;;;;2.70;1.42;;;;;;;5.71;100.00;92612.59;5051668;28;20049;-81
2021/10/16 01:13:01;;;;;;;2.58;1.70;;;;;;;5.57;100.00;92606.69;5051662;28;20045;-82
2021/10/16 01:15:28;;;;;;;3.25;2.45;;;;;;;5.56;100.00;92593.16;5051746;28;20049;-83
2021/10/16 01:17:56;;;;;;;2.95;1.70;;;;;;;4.73;100.00;92470.22;5051643;28;20140;-84
2021/10/16 01:20:25;;;;;;;2.47;1.42;;;;;;;5.47;100.00;92577.28;5051494;28;20057;-83
2021/10/16 01:22:54;;;;;;;1.67;1.10;;;;;;;5.57;100.00;92593.97;5050194;28;20771;-84
2021/10/16 01:25:23;;;;;;;2.55;1.42;;;;;;;5.67;100.00;92593.56;5051351;28;20053;-85
2021/10/16 01:27:50;;;;;;;2.00;1.27;;;;;;;5.10;100.00;92499.66;5051258;28;20048;-83
2021/10/16 01:30:19;;;;;;;1.75;0.95;;;;;;;4.92;100.00;92496.69;5051083;28;20107;-85
2021/10/16 01:32:47;;;;;;;2.03;1.23;;;;;;;5.70;100.00;92598.28;5051115;28;20086;-83
2021/10/16 01:35:15;;;;;;;1.92;1.02;;;;;;;5.72;100.00;92603.97;5051257;28;20076;-82
2021/10/16 01:37:43;;;;;;;2.20;1.17;;;;;;;5.27;100.00;92543.38;5051250;28;20454;-84
2021/10/16 01:40:13;;;;;;;2.08;1.20;;;;;;;5.15;100.00;92540.59;5050797;28;20045;-82
2021/10/16 01:42:42;;;;;;;1.75;0.95;;;;;;;5.65;100.00;92613.38;5050951;28;20051;-83
2021/10/16 01:45:12;;;;;;;1.80;0.98;;;;;;;5.60;100.00;92594.34;5050957;28;20049;-83
2021/10/16 01:47:49;;;;;;;1.55;0.80;;;;;;;5.34;100.00;92546.72;5050827;28;20059;-82
2021/10/16 01:50:16;;;;;;;2.00;0.90;;;;;;;5.77;100.00;92604.19;5050899;28;20411;-83
2021/10/16 01:52:43;;;;;;;1.83;0.80;;;;;;;5.52;100.00;92560.63;5050674;28;20065;-84
2021/10/16 01:55:12;;;;;;;4.25;2.65;;;;;;;5.95;100.00;92615.56;5050790;28;20057;-84
2021/10/16 01:57:39;;;;;;;3.42;1.33;;;;;;;5.66;100.00;92561.44;5050892;28;20056;-83
2021/10/16 02:00:09;;;;;;;2.85;0.65;;;;;;;5.27;100.00;92528.09;5050528;28;20052;-82
2021/10/16 02:02:36;;;;;;;1.00;0.50;;;;;;;5.80;100.00;92615.75;5051013;28;20495;-84
2021/10/16 02:05:04;;;;;;;1.17;0.60;;;;;;;5.63;100.00;92593.19;5050264;28;20805;-83
2021/10/16 02:07:31;;;;;;;0.90;0.40;;;;;;;5.58;100.00;92575.16;5050513;28;20164;-83
2021/10/16 02:09:57;;;;;;;1.65;0.82;;;;;;;5.22;100.00;92526.13;5050464;28;20056;-83
2021/10/16 02:12:26;;;;;;;1.35;0.68;;;;;;;5.97;100.00;92608.53;5050421;28;20049;-81
2021/10/16 02:14:53;;;;;;;1.58;0.73;;;;;;;6.00;100.00;92613.22;5050023;28;20523;-83
2021/10/16 02:17:19;;;;;;;1.05;0.50;;;;;;;5.59;100.00;92574.97;5050353;28;20057;-83
2021/10/16 02:19:46;;;;;;;1.20;0.70;;;;;;;5.72;100.00;92602.22;5049814;28;20056;-84
2021/10/16 02:22:13;;;;;;;1.75;0.70;;;;;;;5.81;100.00;92618.09;5049893;28;20056;-83
2021/10/16 02:24:40;;;;;;;1.40;0.80;;;;;;;5.73;100.00;92621.63;5050151;28;20059;-82
2021/10/16 02:27:07;;;;;;;1.20;0.70;;;;;;;5.82;100.00;92616.31;5049946;28;20049;-81
2021/10/16 02:29:35;;;;;;;1.13;0.60;;;;;;;5.79;100.00;92607.31;5049845;28;20530;-82
2021/10/16 02:32:02;;;;;;;1.30;0.80;;;;;;;5.89;100.00;92605.16;5050099;28;20044;-83
2021/10/16 02:34:29;;;;;;;1.95;1.02;;;;;;;5.69;100.00;92550.88;5049246;28;20055;-83
2021/10/16 02:36:56;;;;;;;1.85;0.98;;;;;;;6.07;100.00;92601.25;5050054;28;20102;-83
2021/10/16 02:39:23;;;;;;;2.33;1.17;;;;;;;6.15;100.00;92613.03;5049650;28;20817;-83
2021/10/16 02:41:50;;;;;;;1.92;1.10;;;;;;;5.88;100.00;92579.88;5049991;28;20056;-84
2021/10/16 02:44:17;;;;;;;1.20;0.70;;;;;;;5.71;100.00;92576.94;5049498;28;20099;-83
2021/10/16 02:46:45;;;;;;;0.88;0.52;;;;;;;5.72;100.00;92578.50;5050538;28;20057;-82
2021/10/16 02:49:12;;;;;;;0.95;0.70;;;;;;;5.99;100.00;92620.09;5049944;28;20052;-83
2021/10/16 02:51:39;;;;;;;0.80;0.40;;;;;;;5.96;100.00;92612.81;5050427;28;20045;-84
2021/10/16 02:54:06;;;;;;;1.63;0.80;;;;;;;5.98;100.00;92615.19;5050160;28;20139;-83
2021/10/16 02:56:33;;;;;;;1.08;0.50;;;;;;;5.83;100.00;92583.00;5050280;28;20507;-84
2021/10/16 02:59:00;;;;;;;1.67;0.75;;;;;;;6.03;100.00;92630.72;5049687;28;20045;-83
2021/10/16 03:01:26;;;;;;;1.40;0.70;;;;;;;5.77;100.00;92603.38;5049338;28;20432;-84
2021/10/16 03:03:55;;;;;;;1.48;0.80;;;;;;;5.93;100.00;92625.94;5049502;28;20049;-83
2021/10/16 03:06:22;;;;;;;2.22;0.88;;;;;;;5.79;100.00;92612.41;5049863;28;20051;-82
2021/10/16 03:08:48;;;;;;;2.38;1.10;;;;;;;5.66;100.00;92597.13;5049779;28;20453;-83
2021/10/16 03:11:15;;;;;;;1.63;0.70;;;;;;;5.84;100.00;92625.34;5049873;28;20512;-83
2021/10/16 03:13:42;;;;;;;2.33;1.40;;;;;;;5.63;100.00;92588.09;5050262;28;20060;-83
2021/10/16 03:16:10;;;;;;;2.03;1.25;;;;;;;5.47;100.00;92584.16;5049882;28;20107;-82
2021/10/16 03:18:36;;;;;;;2.40;1.10;;;;;;;5.96;100.00;92633.22;5049897;28;20500;-82
2021/10/16 03:21:05;;;;;;;2.55;0.73;;;;;;;5.96;100.00;92640.06;5049182;28;20050;-84
2021/10/16 03:23:32;;;;;;;1.63;0.80;;;;;;;5.95;100.00;92633.41;5048984;28;20045;-84
2021/10/16 03:25:59;;;;;;;1.35;0.75;;;;;;;5.93;100.00;92620.84;5048958;28;20128;-84
2021/10/16 03:28:26;;;;;;;3.88;0.98;;;;;;;5.62;100.00;92576.34;5049123;28;20056;-84
2021/10/16 03:30:53;;;;;;;1.52;0.80;;;;;;;6.03;100.00;92620.50;5049300;28;20064;-85
2021/10/16 03:33:20;;;;;;;2.38;1.20;;;;;;;6.06;100.00;92617.56;5049044;28;20511;-85
2021/10/16 03:35:47;;;;;;;1.50;0.90;;;;;;;6.14;100.00;92634.41;5048867;28;20049;-83
2021/10/16 03:38:16;;;;;;;2.42;1.10;;;;;;;5.92;100.00;92610.88;5049213;28;20053;-84
2021/10/16 03:40:43;;;;;;;2.00;0.90;;;;;;;6.06;100.00;92630.28;5049236;28;20087;-82
2021/10/16 03:43:09;;;;;;;1.75;0.88;;;;;;;5.68;100.00;92585.75;5049102;28;20420;-83
2021/10/16 03:45:36;;;;;;;1.60;0.70;;;;;;;5.76;100.00;92582.22;5049371;28;20104;-84
2021/10/16 03:48:04;;;;;;;1.10;0.70;;;;;;;6.05;100.00;92633.03;5053045;28;20057;-82
2021/10/16 03:50:32;;;;;;;3.08;1.75;;;;;;;5.98;100.00;92625.38;5053132;28;20041;-83
2021/10/16 03:53:00;;;;;;;2.38;1.20;;;;;;;6.03;100.00;92628.16;5053091;28;20052;-82
2021/10/16 03:55:29;;;;;;;1.63;0.88;;;;;;;6.05;100.00;92633.03;5052799;28;20049;-83
2021/10/16 03:57:56;;;;;;;1.55;0.70;;;;;;;6.13;100.00;92633.66;5032428;28;20485;-82
2021/10/16 04:00:23;;;;;;;1.05;0.43;;;;;;;6.04;100.00;92627.16;5022953;28;20416;-82
2021/10/16 04:02:52;;;;;;;1.70;0.73;;;;;;;6.06;100.00;92640.50;5031562;28;20058;-81
2021/10/16 04:05:19;;;;;;;1.27;0.57;;;;;;;5.87;100.00;92613.97;5035343;28;20411;-84
2021/10/16 04:07:46;;;;;;;1.20;0.73;;;;;;;5.94;100.00;92627.53;5034978;28;20053;-84
2021/10/16 04:10:13;;;;;;;1.23;0.70;;;;;;;5.92;100.00;92633.81;5023384;28;20061;-81
2021/10/16 04:12:41;;;;;;;1.33;0.60;;;;;;;5.84;100.00;92610.06;5016535;28;20050;-81
2021/10/16 04:15:09;;;;;;;2.15;0.85;;;;;;;5.80;100.00;92601.25;5013455;28;20046;-82
2021/10/16 04:17:36;;;;;;;1.85;0.90;;;;;;;5.94;100.00;92604.59;5013386;28;20145;-83
2021/10/16 04:20:03;;;;;;;2.50;1.40;;;;;;;5.95;100.00;92602.81;5025972;28;20416;-82
2021/10/16 04:22:31;;;;;;;1.85;1.05;;;;;;;5.89;100.00;92617.91;5032527;28;20053;-81
2021/10/16 04:24:57;;;;;;;2.80;0.90;;;;;;;5.97;100.00;92634.78;5032375;28;20103;-83
2021/10/16 04:27:25;;;;;;;1.60;0.90;;;;;;;5.94;100.00;92637.72;5032364;28;20049;-82
2021/10/16 04:29:53;;;;;;;1.67;0.90;;;;;;;5.91;100.00;92633.00;5032324;28;20053;-81
2021/10/16 04:32:20;;;;;;;1.88;1.10;;;;;;;5.88;100.00;92638.50;5032415;28;20726;-82
2021/10/16 04:34:47;;;;;;;2.13;1.02;;;;;;;5.76;100.00;92612.81;5032085;28;20076;-83
2021/10/16 04:37:16;;;;;;;2.20;0.80;;;;;;;5.94;100.00;92635.19;5028784;28;20061;-83
2021/10/16 04:39:43;;;;;;;2.55;1.02;;;;;;;5.78;100.00;92608.28;5012199;28;20052;-82
2021/10/16 04:42:12;;;;;;;2.33;1.08;;;;;;;5.93;100.00;92625.94;5020533;28;20520;-83
2021/10/16 04:44:39;;;;;;;2.58;1.20;;;;;;;6.10;100.00;92636.59;5012514;28;20050;-83
2021/10/16 04:47:08;;;;;;;3.00;1.50;;;;;;;6.08;100.00;92636.00;5011597;28;20448;-84
2021/10/16 04:49:36;;;;;;;2.65;1.30;;;;;;;6.07;100.00;92642.06;5012170;28;20382;-84
2021/10/16 04:52:04;;;;;;;2.47;1.30;;;;;;;5.86;100.00;92622.63;5012264;28;20053;-82
2021/10/16 04:54:31;;;;;;;1.98;1.30;;;;;;;5.44;100.00;92559.84;5027417;28;20064;-83
2021/10/16 04:56:58;;;;;;;2.08;1.00;;;;;;;5.83;100.00;92644.19;5031614;28;20049;-84
2021/10/16 04:59:25;;;;;;;1.73;0.93;;;;;;;5.85;100.00;92634.59;5031693;28;20061;-84
2021/10/16 05:01:54;;;;;;;1.50;0.90;;;;;;;5.74;100.00;92632.63;5028713;28;20086;-83
2021/10/16 05:04:22;;;;;;;2.58;1.30;;;;;;;5.85;100.00;92654.19;5029373;28;20061;-83
2021/10/16 05:06:49;;;;;;;1.83;1.10;;;;;;;5.63;100.00;92608.47;5028675;28;20065;-83
2021/10/16 05:09:16;;;;;;;1.80;1.15;;;;;;;5.95;100.00;92662.25;5023976;28;20064;-83
2021/10/16 05:11:43;;;;;;;11.32;7.25;;;;;;;6.05;100.00;92671.28;5017110;28;20050;-83
2021/10/16 05:14:10;;;;;;;22.13;13.73;;;;;;;6.08;100.00;92668.34;5025628;28;20639;-83
2021/10/16 05:16:37;;;;;;;10.32;4.88;;;;;;;6.00;100.00;92648.91;5031160;28;20049;-84
2021/10/16 05:19:04;;;;;;;5.57;2.92;;;;;;;6.15;100.00;92675.03;5028628;28;20418;-83
2021/10/16 05:21:32;;;;;;;4.55;3.05;;;;;;;5.68;100.00;92601.03;5011776;28;20533;-83
2021/10/16 05:23:59;;;;;;;6.65;3.60;;;;;;;5.89;100.00;92633.19;5011674;28;20585;-83
2021/10/16 05:26:26;;;;;;;6.43;2.88;;;;;;;5.91;100.00;92644.97;5011027;28;20133;-84
2021/10/16 05:28:55;;;;;;;4.60;2.40;;;;;;;5.83;100.00;92633.22;5029221;28;20136;-83
2021/10/16 05:31:22;;;;;;;4.15;2.30;;;;;;;6.21;100.00;92685.44;5013654;28;20054;-84
2021/10/16 05:33:50;;;;;;;4.32;3.03;;;;;;;6.19;100.00;92692.47;5011211;28;20082;-86
2021/10/16 05:36:17;;;;;;;4.60;2.70;;;;;;;6.22;100.00;92692.09;5011246;28;20046;-84
2021/10/16 05:38:45;;;;;;;6.78;3.33;;;;;;;6.00;100.00;92651.44;5011432;28;20058;-84
2021/10/16 05:41:12;;;;;;;20.58;8.20;;;;;;;6.35;100.00;92694.66;5010965;28;20064;-84
2021/10/16 05:43:39;;;;;;;17.70;8.25;;;;;;;6.41;100.00;92701.53;5010918;28;20052;-85
2021/10/16 05:46:06;;;;;;;19.50;7.28;;;;;;;6.53;100.00;92711.16;5010817;28;20050;-85
2021/10/16 05:48:33;;;;;;;20.33;8.25;;;;;;;6.36;100.00;92670.72;5011054;28;20097;-82
2021/10/16 05:51:00;;;;;;;16.67;7.07;;;;;;;6.70;100.00;92716.63;5011075;28;20112;-82
2021/10/16 05:53:27;;;;;;;9.27;4.18;;;;;;;6.79;100.00;92712.91;5010914;28;20505;-82
2021/10/16 05:55:55;;;;;;;5.80;3.35;;;;;;;7.00;100.00;92723.06;5010709;28;20053;-82
2021/10/16 05:58:22;;;;;;;11.60;4.57;;;;;;;6.60;100.00;92650.69;5010727;28;20054;-86
2021/10/16 06:00:49;;;;;;;15.48;6.15;;;;;;;6.43;100.00;92636.78;5011250;28;20054;-85
2021/10/16 06:03:16;;;;;;;17.58;6.82;;;;;;;7.17;100.00;92729.31;5010890;28;20054;-85
2021/10/16 06:05:42;;;;;;;15.52;6.45;;;;;;;6.75;100.00;92663.22;5010848;28;20413;-84
2021/10/16 06:08:09;;;;;;;18.30;6.93;;;;;;;7.21;100.00;92739.91;5010486;28;20050;-85
2021/10/16 06:10:36;;;;;;;13.43;6.25;;;;;;;6.59;100.00;92633.81;5010171;28;20420;-85
2021/10/16 06:13:05;;;;;;;21.77;8.65;;;;;;;7.26;100.00;92732.44;5010796;28;20050;-84
2021/10/16 06:15:31;;;;;;;19.60;8.45;;;;;;;7.28;100.00;92732.25;5028234;28;20072;-85
2021/10/16 06:17:58;;;;;;;17.80;9.05;;;;;;;7.26;100.00;92722.22;5030155;28;20072;-84
2021/10/16 06:20:30;;;;;;;20.67;8.52;;;;;;;7.20;100.00;92735.81;5029825;28;20424;-84
2021/10/16 06:22:57;;;;;;;10.52;6.38;;;;;;;7.28;100.00;92727.13;5029973;28;20049;-85
2021/10/16 06:25:24;;;;;;;7.95;4.28;;;;;;;7.31;100.00;92740.28;5029812;28;20054;-84
2021/10/16 06:27:51;;;;;;;18.63;7.40;;;;;;;7.40;100.00;92743.41;5029795;28;20551;-84
2021/10/16 06:30:19;;;;;;;7.70;4.10;;;;;;;7.12;100.00;92706.16;5029807;28;20058;-83
2021/10/16 06:32:46;;;;;;;7.80;5.25;;;;;;;7.10;100.00;92715.78;5029720;28;20580;-83
2021/10/16 06:35:13;;;;;;;5.07;3.30;;;;;;;7.02;100.00;92700.66;5030057;28;20063;-84
2021/10/16 06:37:40;;;;;;;5.50;3.20;;;;;;;7.00;100.00;92705.19;5030084;28;20053;-84
2021/10/16 06:40:08;;;;;;;8.00;4.32;;;;;;;7.44;100.00;92764.22;5022765;28;20053;-84
2021/10/16 06:42:35;;;;;;;8.00;5.43;;;;;;;7.37;100.00;92753.25;5009835;28;20453;-83
2021/10/16 06:45:02;;;;;;;4.80;2.70;;;;;;;7.28;100.00;92745.03;5010191;28;20148;-84
2021/10/16 06:47:30;;;;;;;2.78;1.40;;;;;;;6.92;100.00;92704.44;5009996;28;20057;-84
2021/10/16 06:49:57;;;;;;;4.25;2.22;;;;;;;6.91;100.00;92696.97;5009938;28;20058;-84
2021/10/16 06:52:24;;;;;;;9.52;6.07;;;;;;;6.94;100.00;92706.78;5010220;28;20508;-85
2021/10/16 06:54:51;;;;;;;2.30;1.58;;;;;;;7.29;100.00;92779.78;5009978;28;20129;-84
2021/10/16 06:57:18;;;;;;;2.08;1.23;;;;;;;6.60;100.00;92676.19;5010076;28;20149;-84
2021/10/16 06:59:44;;;;;;;1.67;1.00;;;;;;;7.02;100.00;92744.88;5026893;28;20056;-82
2021/10/16 07:02:11;;;;;;;2.78;1.60;;;;;;;7.03;100.00;92761.75;5029598;28;20053;-83
2021/10/16 07:04:39;;;;;;;4.45;2.50;;;;;;;7.13;100.00;92763.91;5029611;28;20049;-81
2021/10/16 07:07:06;;;;;;;6.05;3.20;;;;;;;6.93;100.00;92739.19;5029399;28;20046;-85
2021/10/16 07:09:33;;;;;;;2.42;1.52;;;;;;;7.01;100.00;92722.88;5029136;28;20053;-84
2021/10/16 07:12:00;;;;;;;4.05;1.98;;;;;;;7.43;100.00;92775.44;5029818;28;20140;-83
2021/10/16 07:14:27;;;;;;;5.00;2.47;;;;;;;7.21;100.00;92745.03;5029040;28;20049;-83
2021/10/16 07:16:54;;;;;;;3.00;1.70;;;;;;;7.61;100.00;92790.16;5029548;28;20049;-83
2021/10/16 07:19:21;;;;;;;3.78;2.58;;;;;;;7.74;100.00;92797.75;5028605;28;20052;-82
2021/10/16 07:21:49;;;;;;;8.10;5.07;;;;;;;7.45;100.00;92763.25;5028905;28;20050;-83
2021/10/16 07:24:16;;;;;;;8.93;5.97;;;;;;;7.38;100.00;92773.50;5029308;28;20057;-82
2021/10/16 07:26:43;;;;;;;7.63;4.82;;;;;;;7.48;100.00;92796.06;5029468;28;20053;-82
2021/10/16 07:29:10;;;;;;;5.63;3.58;;;;;;;7.30;100.00;92776.25;5029034;28;20064;-84
2021/10/16 07:31:37;;;;;;;4.93;3.45;;;;;;;7.49;100.00;92803.53;5029353;28;20045;-83
2021/10/16 07:34:04;;;;;;;5.80;4.47;;;;;;;7.37;100.00;92797.47;5029270;28;20052;-84
2021/10/16 07:36:34;;;;;;;5.03;4.35;;;;;;;7.16;100.00;92762.72;5028494;28;20132;-84
2021/10/16 07:39:04;;;;;;;4.30;3.03;;;;;;;7.41;100.00;92795.31;5029089;28;20049;-84
2021/10/16 07:41:31;;;;;;;5.40;2.67;;;;;;;7.62;100.00;92814.72;5029940;28;20061;-84
2021/10/16 07:43:58;;;;;;;5.10;2.40;;;;;;;7.17;100.00;92754.09;5029814;28;20412;-82
2021/10/16 07:46:25;;;;;;;9.45;4.43;;;;;;;7.43;100.00;92786.47;5029168;28;20057;-83
2021/10/16 07:48:52;;;;;;;9.60;4.35;;;;;;;7.46;100.00;92780.94;5029759;28;20168;-82
2021/10/16 07:51:19;;;;;;;10.77;5.35;;;;;;;7.05;100.00;92733.47;5029524;28;20052;-85
2021/10/16 07:53:46;;;;;;;19.55;11.30;;;;;;;7.62;100.00;92812.16;5029245;28;20049;-83
2021/10/16 07:56:14;;;;;;;7.68;3.40;;;;;;;7.46;100.00;92787.84;5029020;28;20059;-82
2021/10/16 07:58:41;;;;;;;6.28;3.42;;;;;;;7.56;100.00;92825.75;5029023;28;20053;-83
2021/10/16 08:01:09;;;;;;;5.38;3.47;;;;;;;7.57;100.00;92828.09;5029503;28;20054;-82
2021/10/16 08:03:36;;;;;;;7.30;4.10;;;;;;;7.42;100.00;92809.66;5029107;28;20496;-84
2021/10/16 08:06:04;;;;;;;34.83;18.77;;;;;;;6.80;100.00;92721.31;5028793;28;20479;-84
2021/10/16 08:08:31;;;;;;;19.38;10.63;;;;;;;7.28;100.00;92808.88;5028580;28;20136;-83
2021/10/16 08:10:58;;;;;;;5.10;3.28;;;;;;;7.51;100.00;92835.78;5028978;28;20136;-83
2021/10/16 08:13:29;;;;;;;6.93;4.00;;;;;;;7.50;100.00;92840.09;5028751;28;20405;-84
2021/10/16 08:15:55;;;;;;;16.10;8.45;;;;;;;7.10;100.00;92782.19;5028949;28;20057;-84
2021/10/16 08:18:23;;;;;;;10.00;5.60;;;;;;;7.59;100.00;92833.78;5028829;28;20050;-83
2021/10/16 08:20:49;;;;;;;7.13;4.25;;;;;;;7.22;100.00;92764.47;5029028;28;20068;-85
2021/10/16 08:23:17;;;;;;;14.95;7.78;;;;;;;7.83;100.00;92851.25;5028286;28;20408;-84
2021/10/16 08:25:44;;;;;;;5.00;2.97;;;;;;;7.57;100.00;92829.88;5028941;28;20845;-84
2021/10/16 08:28:12;;;;;;;19.02;10.15;;;;;;;7.59;100.00;92838.13;5028372;28;20527;-85
2021/10/16 08:30:44;;;;;;;25.70;13.13;;;;;;;7.49;100.00;92841.88;5028646;28;20061;-83
2021/10/16 08:33:10;;;;;;;9.27;5.18;;;;;;;7.30;100.00;92817.13;5031317;28;20095;-84
2021/10/16 08:35:38;;;;;;;24.73;11.77;;;;;;;7.13;100.00;92793.78;5032071;28;20041;-85
2021/10/16 08:38:05;;;;;;;11.45;5.50;;;;;;;7.06;100.00;92786.13;5032192;28;20068;-86
2021/10/16 08:40:32;;;;;;;12.20;6.63;;;;;;;6.86;100.00;92776.72;5032451;28;20072;-83
2021/10/16 08:42:58;;;;;;;28.23;13.23;;;;;;;7.51;100.00;92856.22;5031178;28;20045;-85
2021/10/16 08:45:25;;;;;;;22.25;11.25;;;;;;;7.45;100.00;92861.16;5031861;28;20049;-84
2021/10/16 08:47:55;;;;;;;32.53;15.32;;;;;;;7.22;100.00;92818.13;5031846;28;20057;-84
2021/10/16 08:50:26;;;;;;;34.10;16.02;;;;;;;7.55;100.00;92862.50;5031920;28;20053;-84
2021/10/16 08:52:53;;;;;;;40.83;17.67;;;;;;;7.81;100.00;92869.34;5031952;28;20512;-83
2021/10/16 08:55:20;;;;;;;11.52;5.43;;;;;;;7.52;100.00;92843.25;5031973;28;20048;-83
2021/10/16 08:57:48;;;;;;;23.77;11.85;;;;;;;7.79;100.00;92855.19;5031875;28;20480;-85
2021/10/16 09:00:38;;;;;;;17.00;9.02;;;;;;;7.99;100.00;92873.03;5031847;28;20409;-83
2021/10/16 09:03:21;;;;;;;23.88;14.13;;;;;;;7.83;100.00;92835.91;5031587;28;20088;-83
2021/10/16 09:06:11;;;;;;;4.38;2.83;;;;;;;7.62;100.00;92809.59;5041229;28;20053;-84
2021/10/16 09:08:41;;;;;;;7.30;4.13;;;;;;;8.00;100.00;92852.38;5038420;28;20046;-86
2021/10/16 09:11:16;;;;;;;10.13;5.35;;;;;;;8.23;100.00;92873.31;5039765;28;20049;-85
2021/10/16 09:13:45;;;;;;;3.38;2.10;;;;;;;7.72;100.00;92798.94;5038238;28;20434;-85
2021/10/16 09:16:24;;;;;;;3.65;1.95;;;;;;;8.11;100.00;92866.28;5035901;28;20483;-85
2021/10/16 09:18:54;;;;;;;6.65;4.72;;;;;;;8.01;100.00;92819.91;5037242;28;20155;-86
2021/10/16 09:21:23;;;;;;;5.28;3.05;;;;;;;8.38;100.00;92871.28;5051341;28;20052;-85
2021/10/16 09:24:04;;;;;;;1.90;1.33;;;;;;;8.48;100.00;92881.09;5048212;28;20057;-85
2021/10/16 09:26:37;;;;;;;3.72;2.30;;;;;;;7.92;100.00;92816.00;5041271;28;20111;-86
2021/10/16 09:29:08;;;;;;;2.55;1.42;;;;;;;7.79;100.00;92830.41;5037190;28;20051;-85
2021/10/16 09:31:38;;;;;;;4.47;2.60;;;;;;;8.05;100.00;92874.00;5031160;28;20152;-86
2021/10/16 09:34:07;;;;;;;4.30;2.50;;;;;;;7.82;100.00;92827.44;5031020;28;20052;-86
2021/10/16 09:36:36;;;;;;;4.95;3.38;;;;;;;7.82;100.00;92829.22;5029483;28;20053;-87
2021/10/16 09:39:05;;;;;;;3.83;2.38;;;;;;;8.25;100.00;92895.16;5030535;28;20136;-86
2021/10/16 09:41:35;;;;;;;3.58;2.45;;;;;;;7.95;100.00;92843.72;5029764;28;20056;-86
2021/10/16 09:44:03;;;;;;;9.07;4.82;;;;;;;8.13;100.00;92871.22;5030212;28;20160;-84
2021/10/16 09:46:30;;;;;;;9.32;6.63;;;;;;;7.87;100.00;92811.50;5030710;28;20049;-86
2021/10/16 09:49:08;;;;;;;9.05;6.95;;;;;;;8.29;100.00;92865.63;5031083;28;20049;-85
2021/10/16 09:51:51;;;;;;;7.75;5.00;;;;;;;8.38;100.00;92875.66;5030853;28;20053;-86
2021/10/16 09:54:18;;;;;;;7.72;5.65;;;;;;;8.71;100.00;92887.53;5026457;28;20053;-86
2021/10/16 09:56:47;;;;;;;5.05;3.92;;;;;;;8.24;100.00;92839.88;5028886;28;20053;-86
2021/10/16 09:59:18;;;;;;;4.10;2.47;;;;;;;8.55;100.00;92866.53;5030750;28;20049;-85
2021/10/16 10:01:46;;;;;;;5.95;3.47;;;;;;;8.69;100.00;92895.41;5030820;28;20089;-85
2021/10/16 10:04:17;;;;;;;6.68;4.63;;;;;;;8.53;100.00;92895.88;5030686;28;20115;-85
2021/10/16 10:06:46;;;;;;;6.60;4.07;;;;;;;8.46;100.00;92884.88;5030642;28;20053;-86
2021/10/16 10:09:14;;;;;;;6.75;4.07;;;;;;;8.17;100.00;92823.78;5030722;28;20152;-86
2021/10/16 10:11:45;;;;;;;18.30;11.60;;;;;;;8.51;100.00;92883.25;5030496;28;20049;-86
2021/10/16 10:14:13;;;;;;;9.85;6.13;;;;;;;8.16;100.00;92837.56;5030430;28;20045;-86
2021/10/16 10:16:41;;;;;;;9.35;6.38;;;;;;;7.93;100.00;92817.56;5030099;28;20429;-86
2021/10/16 10:19:09;;;;;;;10.50;7.10;;;;;;;8.11;100.00;92888.53;5030384;28;20068;-85
2021/10/16 10:21:39;;;;;;;8.88;6.55;;;;;;;8.32;100.00;92918.19;5030469;28;20057;-85
2021/10/16 10:24:08;;;;;;;7.10;5.80;;;;;;;8.39;100.00;92915.59;5030290;28;20053;-85
2021/10/16 10:26:36;;;;;;;6.50;3.97;;;;;;;8.32;100.00;92904.63;5030250;28;20140;-85
2021/10/16 10:29:05;;;;;;;5.22;4.00;;;;;;;7.98;100.00;92856.13;5025832;28;20045;-85
2021/10/16 10:31:59;;;;;;;5.40;4.30;;;;;;;8.26;100.00;92895.97;5028322;28;20061;-85
2021/10/16 10:34:33;;;;;;;5.07;3.72;;;;;;;8.40;100.00;92928.22;5030038;28;20107;-85
2021/10/16 10:37:06;;;;;;;3.80;2.88;;;;;;;8.25;100.00;92914.88;5030014;28;20575;-85
2021/10/16 10:39:51;;;;;;;4.30;2.90;;;;;;;8.38;100.00;92914.03;5030127;28;20061;-82
2021/10/16 10:42:49;;;;;;;5.20;3.55;;;;;;;8.37;100.00;92930.34;5029335;28;20056;-85
2021/10/16 10:45:38;;;;;;;6.65;4.30;;;;;;;8.07;100.00;92857.47;5029536;28;20813;-88
2021/10/16 10:48:08;;;;;;;8.90;6.60;;;;;;;8.65;100.00;92921.59;5029037;28;20104;-88
2021/10/16 10:50:58;;;;;;;18.42;12.23;;;;;;;8.58;100.00;92938.78;5029859;28;20049;-87
2021/10/16 10:53:43;;;;;;;36.95;23.27;;;;;;;8.46;100.00;92902.78;5029799;28;20056;-86
2021/10/16 10:56:22;;;;;;;24.27;15.90;;;;;;;8.81;100.00;92922.94;5029286;28;20075;-85
2021/10/16 10:59:11;;;;;;;14.13;9.88;;;;;;;8.48;100.00;92875.97;5029195;28;20041;-86
2021/10/16 11:01:53;;;;;;;5.28;3.10;;;;;;;8.55;100.00;92897.25;5029390;28;20137;-86
2021/10/16 11:04:42;;;;;;;6.40;3.35;;;;;;;8.72;100.00;92932.63;5029787;28;20416;-86
2021/10/16 11:07:12;;;;;;;27.27;15.60;;;;;;;8.65;100.00;92921.59;5029712;28;20404;-86
2021/10/16 11:09:41;;;;;;;18.00;10.85;;;;;;;8.31;100.00;92883.34;5029891;28;20099;-85
2021/10/16 11:12:10;;;;;;;16.70;9.27;;;;;;;8.31;100.00;92880.78;5029308;28;20059;-87
2021/10/16 11:14:38;;;;;;;26.38;13.82;;;;;;;8.22;100.00;92871.75;5029227;28;20054;-87
2021/10/16 11:17:07;;;;;;;15.43;7.82;;;;;;;8.59;100.00;92935.22;5029366;28;20046;-85
2021/10/16 11:19:50;;;;;;;41.38;21.15;;;;;;;8.66;100.00;92923.97;5029427;28;20087;-86
2021/10/16 11:22:17;;;;;;;22.85;13.18;;;;;;;8.33;100.00;92866.00;5029073;28;20053;-87
2021/10/16 11:24:46;;;;;;;33.85;16.90;;;;;;;8.31;100.00;92864.63;5029041;28;20053;-87
2021/10/16 11:27:20;;;;;;;8.00;5.43;;;;;;;8.80;100.00;92922.13;5029113;28;20146;-87
2021/10/16 11:29:47;;;;;;;41.78;20.38;;;;;;;8.72;100.00;92919.81;5028671;28;20136;-86
2021/10/16 11:32:16;;;;;;;30.10;13.82;;;;;;;8.76;100.00;92930.44;5009611;28;20140;-85
2021/10/16 11:34:56;;;;;;;29.38;14.60;;;;;;;8.66;100.00;92908.59;5009699;28;20061;-85
2021/10/16 11:37:37;;;;;;;6.10;3.80;;;;;;;8.81;100.00;92910.13;5015635;28;20136;-85
2021/10/16 11:40:08;;;;;;;17.17;9.52;;;;;;;8.47;100.00;92848.81;5029227;28;20467;-86